createdAt,value
2022-10-07T00:01:07.246Z,101403.29
2022-10-07T00:03:35.395Z,101405.05
2022-10-07T00:06:20.860Z,101406.62
2022-10-07T00:08:51.829Z,101403.71
2022-10-07T00:11:25.528Z,101401.41
2022-10-07T00:13:58.723Z,101402.70
2022-10-07T00:16:38.399Z,101400.58
2022-10-07T00:19:11.950Z,101399.88
2022-10-07T00:21:40.040Z,101396.88
2022-10-07T00:24:08.596Z,101400.92
2022-10-07T00:26:37.620Z,101396.77
2022-10-07T00:29:06.931Z,101399.40
2022-10-07T00:31:36.708Z,101399.02
2022-10-07T00:34:05.484Z,101396.24
2022-10-07T00:36:36.738Z,101398.52
2022-10-07T00:39:07.465Z,101398.44
2022-10-07T00:41:42.439Z,101394.20
2022-10-07T00:44:32.176Z,101393.33
2022-10-07T00:47:32.488Z,101392.96
2022-10-07T00:50:16.119Z,101388.77
2022-10-07T00:53:02.045Z,101390.65
2022-10-07T00:55:31.751Z,101388.03
2022-10-07T00:58:02.880Z,101387.50
2022-10-07T01:00:31.261Z,101388.77
2022-10-07T01:02:59.126Z,101390.08
2022-10-07T01:05:26.789Z,101388.66
2022-10-07T01:07:59.043Z,101386.33
2022-10-07T01:10:34.789Z,101382.98
2022-10-07T01:13:10.602Z,101384.85
2022-10-07T01:16:03.119Z,101380.04
2022-10-07T01:18:36.904Z,101380.81
2022-10-07T01:21:11.746Z,101382.83
2022-10-07T01:23:52.995Z,101377.65
2022-10-07T01:26:46.418Z,101378.20
2022-10-07T01:29:19.445Z,101378.91
2022-10-07T01:31:49.744Z,101381.74
2022-10-07T01:34:20.961Z,101382.34
2022-10-07T01:36:52.634Z,101381.25
2022-10-07T01:39:26.388Z,101380.98
2022-10-07T01:41:54.392Z,101381.00
2022-10-07T01:44:22.089Z,101382.67
2022-10-07T01:46:50.818Z,101382.08
2022-10-07T01:49:18.535Z,101383.89
2022-10-07T01:52:01.124Z,101382.30
2022-10-07T01:54:58.937Z,101379.19
2022-10-07T01:57:44.143Z,101375.54
2022-10-07T02:00:13.220Z,101371.27
2022-10-07T02:03:21.312Z,101372.48
2022-10-07T02:06:00.378Z,101369.20
2022-10-07T02:08:48.955Z,101364.84
2022-10-07T02:11:36.862Z,101373.41
2022-10-07T02:14:19.454Z,101371.51
2022-10-07T02:16:50.286Z,101374.23
2022-10-07T02:19:39.528Z,101372.70
2022-10-07T02:22:09.274Z,101370.19
2022-10-07T02:24:39.331Z,101368.66
2022-10-07T02:27:12.161Z,101366.64
2022-10-07T02:29:42.859Z,101364.08
2022-10-07T02:32:15.789Z,101363.43
2022-10-07T02:34:46.049Z,101361.34
2022-10-07T02:37:19.637Z,101361.79
2022-10-07T02:39:48.619Z,101362.17
2022-10-07T02:42:39.326Z,101359.22
2022-10-07T02:45:10.104Z,101360.14
2022-10-07T02:47:50.001Z,101361.13
2022-10-07T02:50:24.200Z,101362.21
2022-10-07T02:52:56.169Z,101359.91
2022-10-07T02:55:26.955Z,101359.98
2022-10-07T02:57:59.087Z,101360.48
2022-10-07T03:00:30.831Z,101359.88
2022-10-07T03:03:02.660Z,101357.95
2022-10-07T03:05:43.345Z,101360.64
2022-10-07T03:08:12.031Z,101355.08
2022-10-07T03:10:41.637Z,101359.71
2022-10-07T03:13:09.907Z,101358.27
2022-10-07T03:15:42.487Z,101355.34
2022-10-07T03:18:26.742Z,101354.20
2022-10-07T03:21:01.000Z,101354.58
2022-10-07T03:23:29.673Z,101353.27
2022-10-07T03:25:59.461Z,101344.60
2022-10-07T03:28:30.062Z,101344.09
2022-10-07T03:31:15.560Z,101342.79
2022-10-07T03:33:49.149Z,101341.09
2022-10-07T03:36:19.341Z,101343.01
2022-10-07T03:38:47.749Z,101341.69
2022-10-07T03:41:17.223Z,101337.06
2022-10-07T03:43:45.460Z,101331.91
2022-10-07T03:46:15.476Z,101335.85
2022-10-07T03:48:45.199Z,101337.27
2022-10-07T03:51:13.121Z,101338.89
2022-10-07T03:53:41.175Z,101340.62
2022-10-07T03:56:08.986Z,101342.63
2022-10-07T03:58:38.309Z,101341.69
2022-10-07T04:01:14.593Z,101344.90
2022-10-07T04:03:47.463Z,101341.66
2022-10-07T04:06:15.167Z,101343.61
2022-10-07T04:08:44.844Z,101341.89
2022-10-07T04:11:12.884Z,101338.44
2022-10-07T04:13:41.992Z,101335.04
2022-10-07T04:16:10.356Z,101334.59
2022-10-07T04:18:41.835Z,101332.45
2022-10-07T04:21:11.627Z,101334.98
2022-10-07T04:23:41.336Z,101328.71
2022-10-07T04:26:11.616Z,101324.91
2022-10-07T04:28:42.978Z,101325.21
2022-10-07T04:31:16.671Z,101323.47
2022-10-07T04:33:47.064Z,101324.67
2022-10-07T04:36:19.244Z,101327.00
2022-10-07T04:39:07.231Z,101326.88
2022-10-07T04:41:37.190Z,101326.95
2022-10-07T04:44:06.876Z,101324.38
2022-10-07T04:46:38.028Z,101329.32
2022-10-07T04:49:10.599Z,101326.85
2022-10-07T04:51:38.526Z,101324.45
2022-10-07T04:54:06.837Z,101324.70
2022-10-07T04:56:39.920Z,101327.63
2022-10-07T04:59:09.143Z,101324.89
2022-10-07T05:01:37.656Z,101323.04
2022-10-07T05:04:05.505Z,101321.95
2022-10-07T05:06:33.696Z,101318.22
2022-10-07T05:09:01.840Z,101315.73
2022-10-07T05:11:31.111Z,101317.08
2022-10-07T05:14:02.757Z,101311.65
2022-10-07T05:16:31.421Z,101314.71
2022-10-07T05:18:59.586Z,101310.85
2022-10-07T05:21:27.714Z,101308.89
2022-10-07T05:23:56.022Z,101311.20
2022-10-07T05:26:27.637Z,101310.40
2022-10-07T05:28:57.790Z,101308.83
2022-10-07T05:31:31.182Z,101312.67
2022-10-07T05:34:00.568Z,101309.87
2022-10-07T05:36:29.016Z,101308.25
2022-10-07T05:38:58.427Z,101311.71
2022-10-07T05:41:30.845Z,101312.70
2022-10-07T05:44:00.245Z,101313.46
2022-10-07T05:46:28.203Z,101314.58
2022-10-07T05:48:58.017Z,101313.13
2022-10-07T05:51:28.662Z,101314.66
2022-10-07T05:53:57.654Z,101318.01
2022-10-07T05:56:34.242Z,101320.84
2022-10-07T05:59:03.486Z,101318.23
2022-10-07T06:01:40.001Z,101314.20
2022-10-07T06:04:15.689Z,101314.70
2022-10-07T06:06:46.953Z,101317.92
2022-10-07T06:09:30.900Z,101321.09
2022-10-07T06:12:16.270Z,101318.92
2022-10-07T06:14:44.498Z,101325.40
2022-10-07T06:17:13.215Z,101329.22
2022-10-07T06:19:42.887Z,101332.77
2022-10-07T06:22:11.158Z,101333.59
2022-10-07T06:24:39.692Z,101337.02
2022-10-07T06:27:07.678Z,101335.65
2022-10-07T06:29:35.627Z,101337.44
2022-10-07T06:32:03.308Z,101341.52
2022-10-07T06:34:31.400Z,101337.77
2022-10-07T06:36:59.136Z,101337.77
2022-10-07T06:39:27.101Z,101336.27
2022-10-07T06:41:56.229Z,101335.20
2022-10-07T06:44:33.901Z,101336.60
2022-10-07T06:47:02.594Z,101343.71
2022-10-07T06:49:31.269Z,101345.16
2022-10-07T06:52:00.202Z,101346.27
2022-10-07T06:54:28.559Z,101342.01
2022-10-07T06:56:56.805Z,101347.32
2022-10-07T06:59:24.863Z,101346.35
2022-10-07T07:02:01.076Z,101345.14
2022-10-07T07:04:29.577Z,101343.27
2022-10-07T07:06:58.667Z,101340.81
2022-10-07T07:09:27.906Z,101337.27
2022-10-07T07:11:59.554Z,101337.45
2022-10-07T07:14:36.668Z,101339.05
2022-10-07T07:17:08.046Z,101335.39
2022-10-07T07:19:36.319Z,101334.41
2022-10-07T07:22:05.293Z,101332.31
2022-10-07T07:24:33.410Z,101334.58
2022-10-07T07:27:01.066Z,101334.06
2022-10-07T07:29:30.095Z,101332.73
2022-10-07T07:32:00.165Z,101330.79
2022-10-07T07:34:30.336Z,101331.45
2022-10-07T07:36:58.226Z,101333.48
2022-10-07T07:39:35.735Z,101331.73
2022-10-07T07:42:08.363Z,101329.54
2022-10-07T07:44:37.681Z,101331.09
2022-10-07T07:47:18.699Z,101332.47
2022-10-07T07:49:55.398Z,101328.34
2022-10-07T07:52:45.315Z,101325.49
2022-10-07T07:55:12.983Z,101325.79
2022-10-07T07:57:43.808Z,101321.97
2022-10-07T08:00:12.656Z,101326.58
2022-10-07T08:02:50.223Z,101327.32
2022-10-07T08:05:28.350Z,101326.70
2022-10-07T08:07:58.781Z,101331.48
2022-10-07T08:10:26.874Z,101329.64
2022-10-07T08:12:55.910Z,101329.42
2022-10-07T08:15:24.489Z,101329.14
2022-10-07T08:17:52.859Z,101328.22
2022-10-07T08:20:20.502Z,101326.30
2022-10-07T08:22:53.573Z,101323.73
2022-10-07T08:25:25.600Z,101318.32
2022-10-07T08:27:53.364Z,101315.94
2022-10-07T08:30:21.176Z,101314.65
2022-10-07T08:32:49.129Z,101302.23
2022-10-07T08:35:16.879Z,101298.89
2022-10-07T08:37:44.881Z,101298.45
2022-10-07T08:40:15.978Z,101298.92
2022-10-07T08:42:45.187Z,101297.15
2022-10-07T08:45:27.478Z,101296.35
2022-10-07T08:47:57.465Z,101295.81
2022-10-07T08:50:32.122Z,101294.94
2022-10-07T08:53:08.412Z,101292.77
2022-10-07T08:55:47.003Z,101293.54
2022-10-07T08:58:33.682Z,101287.48
2022-10-07T09:01:17.537Z,101284.85
2022-10-07T09:03:52.122Z,101288.19
2022-10-07T09:06:56.600Z,101285.34
2022-10-07T09:09:55.071Z,101286.14
2022-10-07T09:12:37.214Z,101286.90
2022-10-07T09:15:15.210Z,101287.41
2022-10-07T09:17:54.717Z,101279.83
2022-10-07T09:20:37.949Z,101275.32
2022-10-07T09:23:10.963Z,101273.21
2022-10-07T09:25:44.358Z,101273.42
2022-10-07T09:28:18.539Z,101267.25
2022-10-07T09:30:50.873Z,101266.45
2022-10-07T09:33:22.493Z,101262.43
2022-10-07T09:35:57.415Z,101262.43
2022-10-07T09:38:46.615Z,101264.42
2022-10-07T09:41:35.878Z,101256.83
2022-10-07T09:44:27.457Z,101255.29
2022-10-07T09:46:59.421Z,101250.81
2022-10-07T09:49:27.131Z,101246.38
2022-10-07T09:52:14.599Z,101240.90
2022-10-07T09:54:47.206Z,101243.27
2022-10-07T09:57:32.623Z,101236.45
2022-10-07T10:00:18.156Z,101240.20
2022-10-07T10:02:55.330Z,101231.10
2022-10-07T10:05:30.386Z,101219.91
2022-10-07T10:08:24.183Z,101221.84
2022-10-07T10:10:55.977Z,101217.00
2022-10-07T10:13:32.113Z,101217.16
2022-10-07T10:16:01.821Z,101216.52
2022-10-07T10:18:36.505Z,101221.14
2022-10-07T10:21:36.820Z,101215.59
2022-10-07T10:24:13.793Z,101213.53
2022-10-07T10:27:13.396Z,101204.05
2022-10-07T10:29:52.535Z,101199.82
2022-10-07T10:32:52.174Z,101200.21
2022-10-07T10:35:29.029Z,101197.74
2022-10-07T10:38:18.645Z,101191.61
2022-10-07T10:41:26.136Z,101180.69
2022-10-07T10:44:39.993Z,101178.69
2022-10-07T10:47:29.752Z,101171.92
2022-10-07T10:50:19.213Z,101171.65
2022-10-07T10:53:05.739Z,101160.83
2022-10-07T10:56:14.854Z,101156.66
2022-10-07T10:59:17.087Z,101155.73
2022-10-07T11:01:47.167Z,101150.06
2022-10-07T11:04:45.794Z,101146.27
2022-10-07T11:07:39.706Z,101145.08
2022-10-07T11:10:28.228Z,101138.25
2022-10-07T11:13:35.546Z,101127.83
2022-10-07T11:16:12.592Z,101125.81
2022-10-07T11:23:44.945Z,101113.11
2022-10-07T11:26:33.788Z,101107.32
2022-10-07T11:29:23.371Z,101103.38
2022-10-07T11:32:01.748Z,101101.18
2022-10-07T11:34:32.826Z,101095.66
2022-10-07T11:37:23.505Z,101091.50
2022-10-07T11:39:53.637Z,101079.35
2022-10-07T11:42:31.841Z,101075.05
2022-10-07T11:45:08.486Z,101066.55
2022-10-07T11:47:52.157Z,101061.61
2022-10-07T11:50:23.003Z,101058.96
2022-10-07T11:52:55.458Z,101053.02
2022-10-07T11:55:27.814Z,101051.25
2022-10-07T11:57:58.465Z,101047.48
2022-10-07T12:00:35.460Z,101043.05
2022-10-07T12:03:19.079Z,101039.70
2022-10-07T12:05:49.320Z,101028.40
2022-10-07T12:08:27.293Z,101030.88
2022-10-07T12:10:56.835Z,101020.95
2022-10-07T12:13:43.656Z,101018.31
2022-10-07T12:16:30.486Z,101009.48
2022-10-07T12:19:07.336Z,101001.61
2022-10-07T12:21:59.734Z,100993.61
2022-10-07T12:24:28.768Z,100992.92
2022-10-07T12:26:59.280Z,100990.86
2022-10-07T12:29:45.636Z,100988.39
2022-10-07T12:32:45.469Z,100982.80
2022-10-07T12:35:34.674Z,100981.13
2022-10-07T12:38:26.177Z,100980.69
2022-10-07T12:41:26.253Z,100976.71
2022-10-07T12:44:16.787Z,100976.64
2022-10-07T12:46:50.824Z,100957.39
2022-10-07T12:49:51.448Z,100952.34
2022-10-07T12:52:38.124Z,100948.38
2022-10-07T12:55:10.921Z,100943.73
2022-10-07T12:57:42.054Z,100941.70
2022-10-07T13:00:23.014Z,100940.02
2022-10-07T13:03:09.678Z,100930.83
2022-10-07T13:05:57.011Z,100925.73
2022-10-07T13:08:54.577Z,100925.23
2022-10-07T13:11:34.497Z,100920.98
2022-10-07T13:14:35.645Z,100916.17
2022-10-07T13:17:22.338Z,100916.03
2022-10-07T13:20:16.008Z,100913.23
2022-10-07T13:22:50.237Z,100905.14
2022-10-07T13:25:20.158Z,100897.17
2022-10-07T13:27:57.399Z,100889.89
2022-10-07T13:30:33.380Z,100883.52
2022-10-07T13:33:22.108Z,100880.02
2022-10-07T13:35:51.893Z,100874.80
2022-10-07T13:38:26.481Z,100873.45
2022-10-07T13:41:34.648Z,100866.95
2022-10-07T13:44:05.102Z,100866.38
2022-10-07T13:46:36.071Z,100859.93
2022-10-07T13:49:05.348Z,100853.23
2022-10-07T13:51:52.857Z,100851.14
2022-10-07T13:54:27.002Z,100846.39
2022-10-07T13:56:55.307Z,100839.59
2022-10-07T13:59:23.900Z,100837.58
2022-10-07T14:01:54.568Z,100836.44
2022-10-07T14:04:31.543Z,100836.37
2022-10-07T14:07:22.519Z,100832.45
2022-10-07T14:10:12.624Z,100826.90
2022-10-07T14:12:50.168Z,100822.65
2022-10-07T14:15:36.878Z,100821.79
2022-10-07T14:18:04.497Z,100822.65
2022-10-07T14:20:41.339Z,100824.19
2022-10-07T14:23:47.961Z,100817.52
2022-10-07T14:26:17.732Z,100811.71
2022-10-07T14:28:45.599Z,100807.64
2022-10-07T14:31:37.427Z,100803.30
2022-10-07T14:34:37.733Z,100793.48
2022-10-07T14:37:14.555Z,100784.46
2022-10-07T14:39:53.047Z,100782.66
2022-10-07T14:42:37.274Z,100780.86
2022-10-07T14:45:09.635Z,100773.95
2022-10-07T14:47:45.503Z,100772.55
2022-10-07T14:50:13.647Z,100767.06
2022-10-07T14:52:52.405Z,100766.52
2022-10-07T14:55:27.736Z,100761.11
2022-10-07T14:57:55.866Z,100755.77
2022-10-07T15:00:29.338Z,100753.00
2022-10-07T15:02:58.331Z,100745.27
2022-10-07T15:05:26.833Z,100744.66
2022-10-07T15:07:54.555Z,100740.61
2022-10-07T15:10:25.329Z,100735.06
2022-10-07T15:12:54.269Z,100736.04
2022-10-07T15:15:21.956Z,100733.39
2022-10-07T15:17:50.721Z,100729.89
2022-10-07T15:20:18.483Z,100724.80
2022-10-07T15:22:46.448Z,100721.29
2022-10-07T15:25:15.541Z,100718.02
2022-10-07T15:27:43.909Z,100715.77
2022-10-07T15:30:12.624Z,100714.15
2022-10-07T15:32:40.682Z,100705.98
2022-10-07T15:35:08.496Z,100708.15
2022-10-07T15:37:36.128Z,100703.16
2022-10-07T15:40:06.627Z,100704.77
2022-10-07T15:42:34.535Z,100703.20
2022-10-07T15:45:02.183Z,100699.27
2022-10-07T15:47:31.464Z,100697.38
2022-10-07T15:50:00.649Z,100692.63
2022-10-07T15:52:29.165Z,100691.97
2022-10-07T15:54:57.212Z,100688.20
2022-10-07T15:57:24.927Z,100687.12
2022-10-07T15:59:54.722Z,100681.10
2022-10-07T16:02:22.644Z,100681.16
2022-10-07T16:04:50.365Z,100675.23
2022-10-07T16:07:18.066Z,100680.70
2022-10-07T16:09:45.689Z,100678.55
2022-10-07T16:12:13.464Z,100671.48
2022-10-07T16:14:41.163Z,100672.89
2022-10-07T16:17:08.862Z,100671.60
2022-10-07T16:19:36.578Z,100668.55
2022-10-07T16:22:04.320Z,100665.28
2022-10-07T16:24:35.228Z,100665.84
2022-10-07T16:27:03.618Z,100659.00
2022-10-07T16:29:47.305Z,100653.06
2022-10-07T16:32:14.911Z,100645.90
2022-10-07T16:34:44.374Z,100645.70
2022-10-07T16:37:12.896Z,100651.48
2022-10-07T16:39:41.372Z,100652.69
2022-10-07T16:42:09.099Z,100651.41
2022-10-07T16:44:36.823Z,100650.98
2022-10-07T16:47:04.646Z,100646.20
2022-10-07T16:49:32.383Z,100644.50
2022-10-07T16:52:00.082Z,100642.55
2022-10-07T16:54:30.383Z,100643.01
2022-10-07T16:56:58.656Z,100639.90
2022-10-07T16:59:27.822Z,100636.03
2022-10-07T17:01:57.118Z,100636.12
2022-10-07T17:04:25.511Z,100631.52
2022-10-07T17:06:54.289Z,100627.78
2022-10-07T17:09:24.459Z,100628.95
2022-10-07T17:11:52.540Z,100629.04
2022-10-07T17:14:21.441Z,100625.70
2022-10-07T17:16:53.281Z,100629.60
2022-10-07T17:19:27.032Z,100625.86
2022-10-07T17:21:56.066Z,100629.18
2022-10-07T17:24:24.100Z,100624.06
2022-10-07T17:26:52.924Z,100621.15
2022-10-07T17:29:23.364Z,100619.76
2022-10-07T17:31:51.915Z,100620.07
2022-10-07T17:34:21.647Z,100619.34
2022-10-07T17:36:50.373Z,100618.48
2022-10-07T17:39:21.512Z,100612.60
2022-10-07T17:41:49.534Z,100608.05
2022-10-07T17:44:17.723Z,100606.95
2022-10-07T17:46:45.577Z,100603.35
2022-10-07T17:49:13.659Z,100602.42
2022-10-07T17:51:44.102Z,100607.46
2022-10-07T17:54:14.669Z,100604.42
2022-10-07T17:56:47.620Z,100602.21
2022-10-07T17:59:16.977Z,100601.85
2022-10-07T18:01:47.837Z,100600.27
2022-10-07T18:04:22.490Z,100596.75
2022-10-07T18:06:52.516Z,100593.65
2022-10-07T18:09:24.498Z,100591.07
2022-10-07T18:12:08.175Z,100587.14
2022-10-07T18:14:53.994Z,100580.36
2022-10-07T18:17:24.904Z,100578.05
2022-10-07T18:19:53.098Z,100578.60
2022-10-07T18:22:20.921Z,100577.89
2022-10-07T18:24:50.069Z,100577.24
2022-10-07T18:27:18.838Z,100572.95
2022-10-07T18:29:48.358Z,100568.07
2022-10-07T18:32:17.673Z,100565.04
2022-10-07T18:34:46.623Z,100563.94
2022-10-07T18:37:16.753Z,100557.55
2022-10-07T18:39:44.485Z,100554.83
2022-10-07T18:42:13.395Z,100551.81
2022-10-07T18:44:44.500Z,100545.79
2022-10-07T18:47:12.593Z,100551.61
2022-10-07T18:49:40.637Z,100545.02
2022-10-07T18:52:08.740Z,100543.54
2022-10-07T18:54:36.479Z,100539.17
2022-10-07T18:57:04.633Z,100537.63
2022-10-07T18:59:32.292Z,100535.52
2022-10-07T19:02:00.147Z,100535.75
2022-10-07T19:04:30.127Z,100529.96
2022-10-07T19:06:57.876Z,100532.75
2022-10-07T19:09:26.382Z,100530.02
2022-10-07T19:11:54.118Z,100531.27
2022-10-07T19:14:25.858Z,100533.62
2022-10-07T19:16:54.163Z,100530.26
2022-10-07T19:19:24.025Z,100531.30
2022-10-07T19:21:55.441Z,100528.20
2022-10-07T19:24:43.659Z,100524.36
2022-10-07T19:27:11.831Z,100521.02
2022-10-07T19:29:39.531Z,100517.89
2022-10-07T19:32:08.823Z,100521.95
2022-10-07T19:34:37.060Z,100521.83
2022-10-07T19:37:05.116Z,100517.36
2022-10-07T19:39:32.904Z,100516.27
2022-10-07T19:42:00.530Z,100514.59
2022-10-07T19:44:29.386Z,100513.36
2022-10-07T19:46:57.230Z,100509.67
2022-10-07T19:49:25.320Z,100504.58
2022-10-07T19:51:53.413Z,100505.20
2022-10-07T19:54:21.078Z,100506.90
2022-10-07T19:56:49.363Z,100505.80
2022-10-07T19:59:17.436Z,100501.92
2022-10-07T20:01:47.566Z,100498.38
2022-10-07T20:04:20.953Z,100500.41
2022-10-07T20:06:49.145Z,100500.56
2022-10-07T20:09:20.060Z,100497.79
2022-10-07T20:11:49.095Z,100497.98
2022-10-07T20:14:16.808Z,100494.46
2022-10-07T20:16:44.999Z,100489.16
2022-10-07T20:19:16.416Z,100485.87
2022-10-07T20:21:45.115Z,100482.29
2022-10-07T20:24:16.239Z,100480.49
2022-10-07T20:26:45.431Z,100478.95
2022-10-07T20:29:16.520Z,100476.48
2022-10-07T20:31:44.502Z,100472.20
2022-10-07T20:34:19.414Z,100468.91
2022-10-07T20:36:48.358Z,100466.15
2022-10-07T20:39:36.502Z,100465.35
2022-10-07T20:42:20.647Z,100467.10
2022-10-07T20:44:51.421Z,100459.39
2022-10-07T20:47:21.375Z,100449.20
2022-10-07T20:49:51.534Z,100442.93
2022-10-07T20:52:22.178Z,100442.81
2022-10-07T20:54:51.393Z,100442.36
2022-10-07T20:57:25.087Z,100440.50
2022-10-07T20:59:53.727Z,100434.99
2022-10-07T21:02:31.777Z,100437.36
2022-10-07T21:04:59.808Z,100437.45
2022-10-07T21:07:27.466Z,100433.73
2022-10-07T21:09:58.170Z,100427.08
2022-10-07T21:12:25.993Z,100425.98
2022-10-07T21:14:56.197Z,100420.06
2022-10-07T21:17:31.750Z,100418.58
2022-10-07T21:20:00.828Z,100414.77
2022-10-07T21:22:28.802Z,100409.61
2022-10-07T21:25:03.565Z,100411.13
2022-10-07T21:27:32.664Z,100408.14
2022-10-07T21:30:00.387Z,100405.20
2022-10-07T21:32:28.146Z,100402.70
2022-10-07T21:34:56.752Z,100402.18
2022-10-07T21:37:26.398Z,100397.64
2022-10-07T21:39:54.997Z,100394.59
2022-10-07T21:42:32.049Z,100394.12
2022-10-07T21:45:02.505Z,100388.80
2022-10-07T21:47:42.906Z,100391.34
2022-10-07T21:50:13.217Z,100396.42
2022-10-07T21:52:42.342Z,100392.27
2022-10-07T21:55:10.061Z,100390.73
2022-10-07T21:57:38.005Z,100384.25
2022-10-07T22:00:06.528Z,100384.83
2022-10-07T22:02:39.678Z,100382.05
2022-10-07T22:05:08.015Z,100377.77
2022-10-07T22:07:56.285Z,100374.80
2022-10-07T22:10:23.986Z,100373.33
2022-10-07T22:12:51.629Z,100365.67
2022-10-07T22:15:20.080Z,100364.21
2022-10-07T22:17:48.112Z,100357.67
2022-10-07T22:20:16.252Z,100352.43
2022-10-07T22:22:44.215Z,100351.27
2022-10-07T22:25:12.285Z,100338.23
2022-10-07T22:27:39.979Z,100335.66
2022-10-07T22:30:09.620Z,100328.88
2022-10-07T22:32:37.486Z,100324.26
2022-10-07T22:35:22.136Z,100318.55
2022-10-07T22:37:49.961Z,100314.59
2022-10-07T22:40:18.024Z,100312.12
2022-10-07T22:42:46.874Z,100313.95
2022-10-07T22:45:15.347Z,100311.48
2022-10-07T22:47:44.083Z,100311.29
2022-10-07T22:50:11.902Z,100307.17
2022-10-07T22:52:39.581Z,100303.81
2022-10-07T22:55:09.653Z,100302.65
2022-10-07T22:57:38.855Z,100298.59
2022-10-07T23:00:08.667Z,100297.80
2022-10-07T23:02:36.557Z,100292.40
2022-10-07T23:05:17.064Z,100296.84
2022-10-07T23:07:44.737Z,100293.52
2022-10-07T23:10:13.800Z,100292.42
2022-10-07T23:12:42.262Z,100289.27
2022-10-07T23:15:14.107Z,100289.16
2022-10-07T23:17:44.545Z,100286.71
2022-10-07T23:20:12.486Z,100278.08
2022-10-07T23:22:44.419Z,100279.96
2022-10-07T23:25:13.185Z,100277.27
2022-10-07T23:27:40.903Z,100274.58
2022-10-07T23:30:11.161Z,100267.46
2022-10-07T23:32:39.824Z,100262.08
2022-10-07T23:35:10.641Z,100253.19
2022-10-07T23:37:38.359Z,100255.81
2022-10-07T23:40:08.414Z,100258.53
2022-10-07T23:42:36.720Z,100250.90
2022-10-07T23:45:04.872Z,100248.52
2022-10-07T23:47:32.496Z,100249.80
2022-10-07T23:50:00.175Z,100242.73
2022-10-07T23:52:27.922Z,100241.52
2022-10-07T23:54:55.976Z,100244.33
2022-10-07T23:57:23.666Z,100239.30
2022-10-07T23:59:51.607Z,100239.38
